sensor_id;sensor_type;location;lat;lon;timestamp;P1;durP1;ratioP1;P2;durP2;ratioP2
13263;SDS011;6700;51.988;7.646;2024-01-15T00:01:29;10.82;;;7.45;;
13263;SDS011;6700;51.988;7.646;2024-01-15T00:04:00;12.25;;;7.80;;
13263;SDS011;6700;51.988;7.646;2024-01-15T00:06:27;7.78;;;6.15;;
13263;SDS011;6700;51.988;7.646;2024-01-15T00:08:55;10.35;;;6.45;;
13263;SDS011;6700;51.988;7.646;2024-01-15T00:11:24;11.25;;;6.82;;
13263;SDS011;6700;51.988;7.646;2024-01-15T00:13:52;10.57;;;6.65;;
13263;SDS011;6700;51.988;7.646;2024-01-15T00:16:23;10.63;;;7.70;;
13263;SDS011;6700;51.988;7.646;2024-01-15T00:18:51;10.37;;;6.63;;
13263;SDS011;6700;51.988;7.646;2024-01-15T00:21:18;11.00;;;6.75;;
13263;SDS011;6700;51.988;7.646;2024-01-15T00:23:46;10.82;;;6.93;;
13263;SDS011;6700;51.988;7.646;2024-01-15T00:26:16;9.15;;;6.97;;
13263;SDS011;6700;51.988;7.646;2024-01-15T00:28:43;10.68;;;7.18;;
13263;SDS011;6700;51.988;7.646;2024-01-15T00:31:10;12.50;;;7.13;;
13263;SDS011;6700;51.988;7.646;2024-01-15T00:33:38;11.98;;;6.75;;
13263;SDS011;6700;51.988;7.646;2024-01-15T00:36:05;9.18;;;6.68;;
13263;SDS011;6700;51.988;7.646;2024-01-15T00:38:33;9.32;;;6.07;;
13263;SDS011;6700;51.988;7.646;2024-01-15T00:41:01;13.23;;;7.15;;
13263;SDS011;6700;51.988;7.646;2024-01-15T00:43:29;12.70;;;6.43;;
13263;SDS011;6700;51.988;7.646;2024-01-15T00:45:57;9.00;;;6.25;;
13263;SDS011;6700;51.988;7.646;2024-01-15T00:48:24;11.10;;;6.70;;
13263;SDS011;6700;51.988;7.646;2024-01-15T00:50:52;10.75;;;6.85;;
13263;SDS011;6700;51.988;7.646;2024-01-15T00:53:21;11.55;;;7.25;;
13263;SDS011;6700;51.988;7.646;2024-01-15T00:55:49;10.45;;;6.10;;
13263;SDS011;6700;51.988;7.646;2024-01-15T00:58:18;9.55;;;6.70;;
13263;SDS011;6700;51.988;7.646;2024-01-15T01:00:45;12.37;;;6.70;;
13263;SDS011;6700;51.988;7.646;2024-01-15T01:03:13;9.05;;;6.88;;
13263;SDS011;6700;51.988;7.646;2024-01-15T01:05:40;10.57;;;6.50;;
13263;SDS011;6700;51.988;7.646;2024-01-15T01:08:09;13.57;;;7.13;;
13263;SDS011;6700;51.988;7.646;2024-01-15T01:10:37;11.73;;;6.88;;
13263;SDS011;6700;51.988;7.646;2024-01-15T01:13:04;10.68;;;5.97;;
13263;SDS011;6700;51.988;7.646;2024-01-15T01:15:31;9.30;;;6.35;;
13263;SDS011;6700;51.988;7.646;2024-01-15T01:17:59;10.80;;;6.78;;
13263;SDS011;6700;51.988;7.646;2024-01-15T01:20:26;12.98;;;6.68;;
13263;SDS011;6700;51.988;7.646;2024-01-15T01:22:55;11.23;;;6.15;;
13263;SDS011;6700;51.988;7.646;2024-01-15T01:25:22;10.50;;;5.88;;
13263;SDS011;6700;51.988;7.646;2024-01-15T01:27:50;8.55;;;6.22;;
13263;SDS011;6700;51.988;7.646;2024-01-15T01:30:17;17.67;;;8.18;;
13263;SDS011;6700;51.988;7.646;2024-01-15T01:32:45;10.65;;;6.10;;
13263;SDS011;6700;51.988;7.646;2024-01-15T01:35:12;13.10;;;7.30;;
13263;SDS011;6700;51.988;7.646;2024-01-15T01:37:40;14.32;;;6.80;;
13263;SDS011;6700;51.988;7.646;2024-01-15T01:40:10;10.40;;;6.60;;
13263;SDS011;6700;51.988;7.646;2024-01-15T01:42:37;13.18;;;6.68;;
13263;SDS011;6700;51.988;7.646;2024-01-15T01:45:05;15.38;;;6.70;;
13263;SDS011;6700;51.988;7.646;2024-01-15T01:47:32;10.60;;;6.87;;
13263;SDS011;6700;51.988;7.646;2024-01-15T01:49:59;11.82;;;6.68;;
13263;SDS011;6700;51.988;7.646;2024-01-15T01:52:28;12.93;;;7.63;;
13263;SDS011;6700;51.988;7.646;2024-01-15T01:54:55;10.05;;;6.47;;
13263;SDS011;6700;51.988;7.646;2024-01-15T01:57:23;12.80;;;6.97;;
13263;SDS011;6700;51.988;7.646;2024-01-15T01:59:50;9.85;;;6.38;;
13263;SDS011;6700;51.988;7.646;2024-01-15T02:02:19;12.73;;;7.47;;
13263;SDS011;6700;51.988;7.646;2024-01-15T02:04:47;13.98;;;7.30;;
13263;SDS011;6700;51.988;7.646;2024-01-15T02:07:16;13.30;;;7.10;;
13263;SDS011;6700;51.988;7.646;2024-01-15T02:09:45;11.48;;;6.78;;
13263;SDS011;6700;51.988;7.646;2024-01-15T02:12:13;12.95;;;7.05;;
13263;SDS011;6700;51.988;7.646;2024-01-15T02:14:40;12.98;;;6.88;;
13263;SDS011;6700;51.988;7.646;2024-01-15T02:17:07;15.40;;;6.57;;
13263;SDS011;6700;51.988;7.646;2024-01-15T02:19:35;14.63;;;7.63;;
13263;SDS011;6700;51.988;7.646;2024-01-15T02:22:02;13.00;;;6.63;;
13263;SDS011;6700;51.988;7.646;2024-01-15T02:24:29;12.77;;;6.60;;
13263;SDS011;6700;51.988;7.646;2024-01-15T02:26:57;11.50;;;7.43;;
13263;SDS011;6700;51.988;7.646;2024-01-15T02:29:26;19.38;;;9.32;;
13263;SDS011;6700;51.988;7.646;2024-01-15T02:31:53;12.70;;;6.43;;
13263;SDS011;6700;51.988;7.646;2024-01-15T02:34:23;11.55;;;6.00;;
13263;SDS011;6700;51.988;7.646;2024-01-15T02:36:50;14.43;;;6.65;;
13263;SDS011;6700;51.988;7.646;2024-01-15T02:39:17;14.60;;;6.90;;
13263;SDS011;6700;51.988;7.646;2024-01-15T02:41:46;13.10;;;6.20;;
13263;SDS011;6700;51.988;7.646;2024-01-15T02:44:13;10.73;;;5.75;;
13263;SDS011;6700;51.988;7.646;2024-01-15T02:46:41;10.98;;;6.45;;
13263;SDS011;6700;51.988;7.646;2024-01-15T02:49:08;9.57;;;6.00;;
13263;SDS011;6700;51.988;7.646;2024-01-15T02:51:36;10.57;;;6.50;;
13263;SDS011;6700;51.988;7.646;2024-01-15T02:54:03;15.50;;;6.25;;
13263;SDS011;6700;51.988;7.646;2024-01-15T02:56:31;13.32;;;6.55;;
13263;SDS011;6700;51.988;7.646;2024-01-15T02:58:58;14.35;;;6.35;;
13263;SDS011;6700;51.988;7.646;2024-01-15T03:01:26;10.02;;;6.28;;
13263;SDS011;6700;51.988;7.646;2024-01-15T03:03:53;14.40;;;7.23;;
13263;SDS011;6700;51.988;7.646;2024-01-15T03:06:21;14.25;;;6.95;;
13263;SDS011;6700;51.988;7.646;2024-01-15T03:08:49;11.35;;;7.13;;
13263;SDS011;6700;51.988;7.646;2024-01-15T03:11:16;14.10;;;6.88;;
13263;SDS011;6700;51.988;7.646;2024-01-15T03:13:43;13.68;;;6.57;;
13263;SDS011;6700;51.988;7.646;2024-01-15T03:16:10;13.85;;;6.90;;
13263;SDS011;6700;51.988;7.646;2024-01-15T03:18:38;14.53;;;6.33;;
13263;SDS011;6700;51.988;7.646;2024-01-15T03:21:05;12.70;;;7.28;;
13263;SDS011;6700;51.988;7.646;2024-01-15T03:23:33;12.77;;;7.53;;
13263;SDS011;6700;51.988;7.646;2024-01-15T03:26:00;14.75;;;7.53;;
13263;SDS011;6700;51.988;7.646;2024-01-15T03:28:28;12.73;;;7.35;;
13263;SDS011;6700;51.988;7.646;2024-01-15T03:30:56;12.27;;;6.78;;
13263;SDS011;6700;51.988;7.646;2024-01-15T03:33:24;13.38;;;6.78;;
13263;SDS011;6700;51.988;7.646;2024-01-15T03:35:51;13.82;;;6.72;;
13263;SDS011;6700;51.988;7.646;2024-01-15T03:38:18;11.80;;;6.32;;
13263;SDS011;6700;51.988;7.646;2024-01-15T03:40:45;13.33;;;5.77;;
13263;SDS011;6700;51.988;7.646;2024-01-15T03:43:13;10.75;;;6.65;;
13263;SDS011;6700;51.988;7.646;2024-01-15T03:45:44;12.98;;;6.47;;
13263;SDS011;6700;51.988;7.646;2024-01-15T03:48:12;11.13;;;6.03;;
13263;SDS011;6700;51.988;7.646;2024-01-15T03:53:46;12.35;;;5.93;;
13263;SDS011;6700;51.988;7.646;2024-01-15T03:56:14;8.43;;;5.70;;
13263;SDS011;6700;51.988;7.646;2024-01-15T03:58:42;9.15;;;5.57;;
13263;SDS011;6700;51.988;7.646;2024-01-15T04:01:10;12.35;;;5.45;;
13263;SDS011;6700;51.988;7.646;2024-01-15T04:03:38;7.50;;;4.82;;
13263;SDS011;6700;51.988;7.646;2024-01-15T04:06:06;12.15;;;5.65;;
13263;SDS011;6700;51.988;7.646;2024-01-15T04:08:34;11.55;;;5.00;;
13263;SDS011;6700;51.988;7.646;2024-01-15T04:11:02;10.50;;;5.22;;
13263;SDS011;6700;51.988;7.646;2024-01-15T04:13:32;9.95;;;5.00;;
13263;SDS011;6700;51.988;7.646;2024-01-15T04:16:00;10.60;;;5.35;;
13263;SDS011;6700;51.988;7.646;2024-01-15T04:18:28;10.68;;;5.18;;
13263;SDS011;6700;51.988;7.646;2024-01-15T04:20:56;9.33;;;5.03;;
13263;SDS011;6700;51.988;7.646;2024-01-15T04:23:25;8.48;;;5.13;;
13263;SDS011;6700;51.988;7.646;2024-01-15T04:25:52;12.48;;;4.65;;
13263;SDS011;6700;51.988;7.646;2024-01-15T04:28:20;12.38;;;5.32;;
13263;SDS011;6700;51.988;7.646;2024-01-15T04:30:47;11.27;;;5.20;;
13263;SDS011;6700;51.988;7.646;2024-01-15T04:35:55;6.63;;;4.25;;
13263;SDS011;6700;51.988;7.646;2024-01-15T04:38:23;8.05;;;4.63;;
13263;SDS011;6700;51.988;7.646;2024-01-15T04:40:52;6.05;;;4.28;;
13263;SDS011;6700;51.988;7.646;2024-01-15T04:43:23;9.00;;;4.40;;
13263;SDS011;6700;51.988;7.646;2024-01-15T04:45:52;9.77;;;3.75;;
13263;SDS011;6700;51.988;7.646;2024-01-15T04:48:19;9.43;;;4.22;;
13263;SDS011;6700;51.988;7.646;2024-01-15T04:50:50;9.00;;;3.78;;
13263;SDS011;6700;51.988;7.646;2024-01-15T04:53:17;10.18;;;4.43;;
13263;SDS011;6700;51.988;7.646;2024-01-15T04:55:44;10.55;;;4.07;;
13263;SDS011;6700;51.988;7.646;2024-01-15T04:58:12;8.68;;;3.97;;
13263;SDS011;6700;51.988;7.646;2024-01-15T05:00:39;9.32;;;4.75;;
13263;SDS011;6700;51.988;7.646;2024-01-15T05:03:06;10.63;;;4.25;;
13263;SDS011;6700;51.988;7.646;2024-01-15T05:05:35;8.20;;;4.50;;
13263;SDS011;6700;51.988;7.646;2024-01-15T05:08:02;8.00;;;4.50;;
13263;SDS011;6700;51.988;7.646;2024-01-15T05:10:30;13.45;;;4.82;;
13263;SDS011;6700;51.988;7.646;2024-01-15T05:12:58;10.98;;;4.90;;
13263;SDS011;6700;51.988;7.646;2024-01-15T05:15:25;9.93;;;5.35;;
13263;SDS011;6700;51.988;7.646;2024-01-15T05:17:55;12.45;;;5.38;;
13263;SDS011;6700;51.988;7.646;2024-01-15T05:20:22;11.40;;;5.30;;
13263;SDS011;6700;51.988;7.646;2024-01-15T05:22:50;10.40;;;4.68;;
13263;SDS011;6700;51.988;7.646;2024-01-15T05:25:17;12.20;;;5.77;;
13263;SDS011;6700;51.988;7.646;2024-01-15T05:27:44;8.95;;;5.47;;
13263;SDS011;6700;51.988;7.646;2024-01-15T05:30:12;10.18;;;5.10;;
13263;SDS011;6700;51.988;7.646;2024-01-15T05:32:39;7.43;;;4.70;;
13263;SDS011;6700;51.988;7.646;2024-01-15T05:35:07;9.88;;;4.60;;
13263;SDS011;6700;51.988;7.646;2024-01-15T05:37:34;9.32;;;4.13;;
13263;SDS011;6700;51.988;7.646;2024-01-15T05:40:01;6.45;;;4.35;;
13263;SDS011;6700;51.988;7.646;2024-01-15T05:42:31;8.32;;;4.50;;
13263;SDS011;6700;51.988;7.646;2024-01-15T05:44:58;10.13;;;4.60;;
13263;SDS011;6700;51.988;7.646;2024-01-15T05:47:28;10.23;;;4.43;;
13263;SDS011;6700;51.988;7.646;2024-01-15T05:49:56;9.70;;;4.15;;
13263;SDS011;6700;51.988;7.646;2024-01-15T05:52:23;10.20;;;3.72;;
13263;SDS011;6700;51.988;7.646;2024-01-15T05:54:51;6.40;;;3.28;;
13263;SDS011;6700;51.988;7.646;2024-01-15T05:57:18;7.82;;;3.90;;
13263;SDS011;6700;51.988;7.646;2024-01-15T05:59:46;8.45;;;3.95;;
13263;SDS011;6700;51.988;7.646;2024-01-15T06:02:14;6.93;;;3.40;;
13263;SDS011;6700;51.988;7.646;2024-01-15T06:04:41;9.40;;;3.45;;
13263;SDS011;6700;51.988;7.646;2024-01-15T06:07:09;6.78;;;3.85;;
13263;SDS011;6700;51.988;7.646;2024-01-15T06:09:37;7.28;;;3.63;;
13263;SDS011;6700;51.988;7.646;2024-01-15T06:12:05;9.32;;;3.58;;
13263;SDS011;6700;51.988;7.646;2024-01-15T06:14:33;6.38;;;3.45;;
13263;SDS011;6700;51.988;7.646;2024-01-15T06:17:01;9.70;;;4.13;;
13263;SDS011;6700;51.988;7.646;2024-01-15T06:19:30;7.32;;;3.90;;
13263;SDS011;6700;51.988;7.646;2024-01-15T06:21:58;7.80;;;4.30;;
13263;SDS011;6700;51.988;7.646;2024-01-15T06:24:26;8.18;;;4.25;;
13263;SDS011;6700;51.988;7.646;2024-01-15T06:26:53;10.20;;;4.13;;
13263;SDS011;6700;51.988;7.646;2024-01-15T06:29:21;9.65;;;4.47;;
13263;SDS011;6700;51.988;7.646;2024-01-15T06:31:48;6.30;;;3.78;;
13263;SDS011;6700;51.988;7.646;2024-01-15T06:34:17;8.25;;;4.13;;
13263;SDS011;6700;51.988;7.646;2024-01-15T06:36:44;6.22;;;4.07;;
13263;SDS011;6700;51.988;7.646;2024-01-15T06:39:12;6.75;;;3.75;;
13263;SDS011;6700;51.988;7.646;2024-01-15T06:41:40;7.15;;;4.50;;
13263;SDS011;6700;51.988;7.646;2024-01-15T06:44:10;7.32;;;3.72;;
13263;SDS011;6700;51.988;7.646;2024-01-15T06:46:41;8.00;;;3.75;;
13263;SDS011;6700;51.988;7.646;2024-01-15T06:49:09;7.73;;;3.50;;
13263;SDS011;6700;51.988;7.646;2024-01-15T06:51:36;5.88;;;3.50;;
13263;SDS011;6700;51.988;7.646;2024-01-15T06:54:04;5.28;;;3.10;;
13263;SDS011;6700;51.988;7.646;2024-01-15T06:56:31;9.85;;;3.33;;
13263;SDS011;6700;51.988;7.646;2024-01-15T06:58:59;5.05;;;3.30;;
13263;SDS011;6700;51.988;7.646;2024-01-15T07:01:26;7.15;;;3.35;;
13263;SDS011;6700;51.988;7.646;2024-01-15T07:03:53;8.68;;;3.70;;
13263;SDS011;6700;51.988;7.646;2024-01-15T07:06:21;7.40;;;3.90;;
13263;SDS011;6700;51.988;7.646;2024-01-15T07:08:48;5.30;;;3.57;;
13263;SDS011;6700;51.988;7.646;2024-01-15T07:11:16;7.03;;;4.32;;
13263;SDS011;6700;51.988;7.646;2024-01-15T07:13:43;8.60;;;3.97;;
13263;SDS011;6700;51.988;7.646;2024-01-15T07:16:10;6.30;;;3.65;;
13263;SDS011;6700;51.988;7.646;2024-01-15T07:18:40;4.82;;;3.33;;
13263;SDS011;6700;51.988;7.646;2024-01-15T07:21:07;4.30;;;3.53;;
13263;SDS011;6700;51.988;7.646;2024-01-15T07:23:35;5.68;;;3.70;;
13263;SDS011;6700;51.988;7.646;2024-01-15T07:26:04;4.78;;;3.42;;
13263;SDS011;6700;51.988;7.646;2024-01-15T07:28:31;5.82;;;3.22;;
13263;SDS011;6700;51.988;7.646;2024-01-15T07:30:58;4.10;;;2.80;;
13263;SDS011;6700;51.988;7.646;2024-01-15T07:33:27;5.60;;;3.10;;
13263;SDS011;6700;51.988;7.646;2024-01-15T07:35:55;4.00;;;2.83;;
13263;SDS011;6700;51.988;7.646;2024-01-15T07:38:26;4.35;;;3.05;;
13263;SDS011;6700;51.988;7.646;2024-01-15T07:40:57;3.38;;;2.83;;
13263;SDS011;6700;51.988;7.646;2024-01-15T07:43:24;3.35;;;3.05;;
13263;SDS011;6700;51.988;7.646;2024-01-15T07:45:53;3.63;;;2.95;;
13263;SDS011;6700;51.988;7.646;2024-01-15T07:48:22;4.60;;;3.40;;
13263;SDS011;6700;51.988;7.646;2024-01-15T07:50:49;6.40;;;3.40;;
13263;SDS011;6700;51.988;7.646;2024-01-15T07:53:17;4.53;;;3.50;;
13263;SDS011;6700;51.988;7.646;2024-01-15T07:55:47;6.50;;;3.83;;
13263;SDS011;6700;51.988;7.646;2024-01-15T07:58:14;5.97;;;3.80;;
13263;SDS011;6700;51.988;7.646;2024-01-15T08:00:42;6.85;;;4.47;;
13263;SDS011;6700;51.988;7.646;2024-01-15T08:03:11;6.32;;;3.80;;
13263;SDS011;6700;51.988;7.646;2024-01-15T08:05:39;10.10;;;4.47;;
13263;SDS011;6700;51.988;7.646;2024-01-15T08:08:06;9.32;;;4.50;;
13263;SDS011;6700;51.988;7.646;2024-01-15T08:10:33;9.68;;;4.25;;
13263;SDS011;6700;51.988;7.646;2024-01-15T08:13:01;7.15;;;4.70;;
13263;SDS011;6700;51.988;7.646;2024-01-15T08:15:29;7.25;;;4.35;;
13263;SDS011;6700;51.988;7.646;2024-01-15T08:17:58;5.35;;;4.05;;
13263;SDS011;6700;51.988;7.646;2024-01-15T08:20:26;6.30;;;4.47;;
13263;SDS011;6700;51.988;7.646;2024-01-15T08:22:53;6.45;;;4.57;;
13263;SDS011;6700;51.988;7.646;2024-01-15T08:25:22;5.53;;;4.10;;
13263;SDS011;6700;51.988;7.646;2024-01-15T08:27:49;4.97;;;4.38;;
13263;SDS011;6700;51.988;7.646;2024-01-15T08:30:16;5.75;;;4.53;;
13263;SDS011;6700;51.988;7.646;2024-01-15T08:32:45;5.15;;;4.32;;
13263;SDS011;6700;51.988;7.646;2024-01-15T08:35:12;6.05;;;4.03;;
13263;SDS011;6700;51.988;7.646;2024-01-15T08:37:39;5.03;;;3.40;;
13263;SDS011;6700;51.988;7.646;2024-01-15T08:40:07;4.85;;;3.22;;
13263;SDS011;6700;51.988;7.646;2024-01-15T08:42:38;4.45;;;3.60;;
13263;SDS011;6700;51.988;7.646;2024-01-15T08:45:06;5.45;;;3.22;;
13263;SDS011;6700;51.988;7.646;2024-01-15T08:47:33;5.28;;;3.20;;
13263;SDS011;6700;51.988;7.646;2024-01-15T08:50:01;4.80;;;3.23;;
13263;SDS011;6700;51.988;7.646;2024-01-15T08:52:30;5.80;;;3.20;;
13263;SDS011;6700;51.988;7.646;2024-01-15T08:54:58;5.80;;;3.17;;
13263;SDS011;6700;51.988;7.646;2024-01-15T08:57:26;6.40;;;3.47;;
13263;SDS011;6700;51.988;7.646;2024-01-15T08:59:53;4.57;;;3.63;;
13263;SDS011;6700;51.988;7.646;2024-01-15T09:02:22;5.30;;;3.20;;
13263;SDS011;6700;51.988;7.646;2024-01-15T09:04:50;5.18;;;3.20;;
13263;SDS011;6700;51.988;7.646;2024-01-15T09:07:18;6.33;;;3.20;;
13263;SDS011;6700;51.988;7.646;2024-01-15T09:09:45;4.78;;;3.08;;
13263;SDS011;6700;51.988;7.646;2024-01-15T09:12:17;7.30;;;3.53;;
13263;SDS011;6700;51.988;7.646;2024-01-15T09:14:47;4.28;;;3.10;;
13263;SDS011;6700;51.988;7.646;2024-01-15T09:17:14;5.95;;;3.10;;
13263;SDS011;6700;51.988;7.646;2024-01-15T09:19:42;5.17;;;3.07;;
13263;SDS011;6700;51.988;7.646;2024-01-15T09:22:09;6.43;;;3.13;;
13263;SDS011;6700;51.988;7.646;2024-01-15T09:24:37;5.85;;;3.17;;
13263;SDS011;6700;51.988;7.646;2024-01-15T09:27:04;3.40;;;2.90;;
13263;SDS011;6700;51.988;7.646;2024-01-15T09:29:31;4.90;;;2.92;;
13263;SDS011;6700;51.988;7.646;2024-01-15T09:31:59;5.70;;;2.80;;
13263;SDS011;6700;51.988;7.646;2024-01-15T09:34:29;6.30;;;3.10;;
13263;SDS011;6700;51.988;7.646;2024-01-15T09:36:57;4.70;;;3.10;;
13263;SDS011;6700;51.988;7.646;2024-01-15T09:39:26;5.82;;;3.10;;
13263;SDS011;6700;51.988;7.646;2024-01-15T09:41:54;5.85;;;3.30;;
13263;SDS011;6700;51.988;7.646;2024-01-15T09:44:21;4.30;;;3.00;;
13263;SDS011;6700;51.988;7.646;2024-01-15T09:46:49;5.32;;;3.30;;
13263;SDS011;6700;51.988;7.646;2024-01-15T09:49:17;4.67;;;2.87;;
13263;SDS011;6700;51.988;7.646;2024-01-15T09:51:44;3.35;;;3.05;;
13263;SDS011;6700;51.988;7.646;2024-01-15T09:54:24;3.97;;;2.97;;
13263;SDS011;6700;51.988;7.646;2024-01-15T09:56:52;6.07;;;3.00;;
13263;SDS011;6700;51.988;7.646;2024-01-15T09:59:20;4.00;;;3.15;;
13263;SDS011;6700;51.988;7.646;2024-01-15T10:01:50;6.72;;;3.20;;
13263;SDS011;6700;51.988;7.646;2024-01-15T10:04:17;6.63;;;3.22;;
13263;SDS011;6700;51.988;7.646;2024-01-15T10:06:45;5.68;;;3.45;;
13263;SDS011;6700;51.988;7.646;2024-01-15T10:09:15;6.00;;;3.42;;
13263;SDS011;6700;51.988;7.646;2024-01-15T10:14:26;5.45;;;3.42;;
13263;SDS011;6700;51.988;7.646;2024-01-15T10:16:53;7.53;;;4.03;;
13263;SDS011;6700;51.988;7.646;2024-01-15T10:19:25;6.32;;;3.78;;
13263;SDS011;6700;51.988;7.646;2024-01-15T10:21:53;5.18;;;4.00;;
13263;SDS011;6700;51.988;7.646;2024-01-15T10:24:20;4.22;;;3.40;;
13263;SDS011;6700;51.988;7.646;2024-01-15T10:26:48;5.43;;;3.35;;
13263;SDS011;6700;51.988;7.646;2024-01-15T10:29:15;5.75;;;3.70;;
13263;SDS011;6700;51.988;7.646;2024-01-15T10:31:42;5.43;;;3.60;;
13263;SDS011;6700;51.988;7.646;2024-01-15T10:34:12;3.90;;;3.50;;
13263;SDS011;6700;51.988;7.646;2024-01-15T10:36:39;5.32;;;3.22;;
13263;SDS011;6700;51.988;7.646;2024-01-15T10:39:07;6.07;;;3.75;;
13263;SDS011;6700;51.988;7.646;2024-01-15T10:41:34;5.20;;;3.90;;
13263;SDS011;6700;51.988;7.646;2024-01-15T10:44:03;8.82;;;3.53;;
13263;SDS011;6700;51.988;7.646;2024-01-15T10:46:30;5.75;;;3.25;;
13263;SDS011;6700;51.988;7.646;2024-01-15T10:48:58;5.38;;;3.28;;
13263;SDS011;6700;51.988;7.646;2024-01-15T10:51:26;4.63;;;3.45;;
13263;SDS011;6700;51.988;7.646;2024-01-15T10:53:53;3.40;;;3.10;;
13263;SDS011;6700;51.988;7.646;2024-01-15T10:56:21;3.30;;;3.00;;
13263;SDS011;6700;51.988;7.646;2024-01-15T10:58:52;3.65;;;2.80;;
13263;SDS011;6700;51.988;7.646;2024-01-15T11:01:25;3.75;;;3.08;;
13263;SDS011;6700;51.988;7.646;2024-01-15T11:03:56;4.72;;;3.33;;
13263;SDS011;6700;51.988;7.646;2024-01-15T11:06:24;5.22;;;3.28;;
13263;SDS011;6700;51.988;7.646;2024-01-15T11:08:52;4.38;;;2.90;;
13263;SDS011;6700;51.988;7.646;2024-01-15T11:11:20;6.97;;;3.42;;
13263;SDS011;6700;51.988;7.646;2024-01-15T11:13:48;6.53;;;2.70;;
13263;SDS011;6700;51.988;7.646;2024-01-15T11:16:19;3.90;;;2.90;;
13263;SDS011;6700;51.988;7.646;2024-01-15T11:21:26;5.15;;;2.83;;
13263;SDS011;6700;51.988;7.646;2024-01-15T11:23:57;5.32;;;2.70;;
13263;SDS011;6700;51.988;7.646;2024-01-15T11:28:59;5.10;;;2.75;;
13263;SDS011;6700;51.988;7.646;2024-01-15T11:31:56;4.47;;;2.88;;
13263;SDS011;6700;51.988;7.646;2024-01-15T11:34:15;4.63;;;2.80;;
13263;SDS011;6700;51.988;7.646;2024-01-15T11:41:57;5.67;;;2.83;;
13263;SDS011;6700;51.988;7.646;2024-01-15T11:44:24;4.85;;;2.83;;
13263;SDS011;6700;51.988;7.646;2024-01-15T11:47:01;8.27;;;2.50;;
13263;SDS011;6700;51.988;7.646;2024-01-15T11:52:06;5.70;;;2.50;;
13263;SDS011;6700;51.988;7.646;2024-01-15T11:54:34;5.38;;;2.83;;
13263;SDS011;6700;51.988;7.646;2024-01-15T11:57:04;5.05;;;2.40;;
13263;SDS011;6700;51.988;7.646;2024-01-15T11:59:34;4.50;;;2.20;;
13263;SDS011;6700;51.988;7.646;2024-01-15T12:02:02;5.05;;;2.80;;
13263;SDS011;6700;51.988;7.646;2024-01-15T12:04:29;4.47;;;2.40;;
13263;SDS011;6700;51.988;7.646;2024-01-15T12:06:57;4.95;;;2.33;;
13263;SDS011;6700;51.988;7.646;2024-01-15T12:09:24;4.18;;;2.40;;
13263;SDS011;6700;51.988;7.646;2024-01-15T12:11:54;4.32;;;2.58;;
13263;SDS011;6700;51.988;7.646;2024-01-15T12:14:26;5.28;;;2.45;;
13263;SDS011;6700;51.988;7.646;2024-01-15T12:16:56;3.83;;;2.27;;
13263;SDS011;6700;51.988;7.646;2024-01-15T12:19:23;5.45;;;2.58;;
13263;SDS011;6700;51.988;7.646;2024-01-15T12:21:50;5.40;;;2.80;;
13263;SDS011;6700;51.988;7.646;2024-01-15T12:24:18;5.80;;;2.50;;
13263;SDS011;6700;51.988;7.646;2024-01-15T12:26:45;5.38;;;2.90;;
13263;SDS011;6700;51.988;7.646;2024-01-15T12:29:12;7.03;;;2.80;;
13263;SDS011;6700;51.988;7.646;2024-01-15T12:31:40;7.32;;;2.55;;
13263;SDS011;6700;51.988;7.646;2024-01-15T12:34:07;6.88;;;2.67;;
13263;SDS011;6700;51.988;7.646;2024-01-15T12:36:34;6.03;;;3.38;;
13263;SDS011;6700;51.988;7.646;2024-01-15T12:39:02;5.55;;;2.65;;
13263;SDS011;6700;51.988;7.646;2024-01-15T12:41:30;5.72;;;2.30;;
13263;SDS011;6700;51.988;7.646;2024-01-15T12:43:57;6.28;;;2.65;;
13263;SDS011;6700;51.988;7.646;2024-01-15T12:46:25;5.25;;;2.55;;
13263;SDS011;6700;51.988;7.646;2024-01-15T12:48:52;5.60;;;2.53;;
13263;SDS011;6700;51.988;7.646;2024-01-15T12:51:24;4.80;;;2.17;;
13263;SDS011;6700;51.988;7.646;2024-01-15T12:53:51;5.00;;;2.40;;
13263;SDS011;6700;51.988;7.646;2024-01-15T12:56:19;6.45;;;2.40;;
13263;SDS011;6700;51.988;7.646;2024-01-15T12:58:46;6.45;;;2.20;;
13263;SDS011;6700;51.988;7.646;2024-01-15T13:01:13;3.58;;;1.90;;
13263;SDS011;6700;51.988;7.646;2024-01-15T13:03:40;4.07;;;2.05;;
13263;SDS011;6700;51.988;7.646;2024-01-15T13:06:08;4.68;;;2.03;;
13263;SDS011;6700;51.988;7.646;2024-01-15T13:08:35;4.32;;;2.08;;
13263;SDS011;6700;51.988;7.646;2024-01-15T13:11:02;4.20;;;2.30;;
13263;SDS011;6700;51.988;7.646;2024-01-15T13:13:29;6.30;;;1.90;;
13263;SDS011;6700;51.988;7.646;2024-01-15T13:15:58;4.57;;;1.90;;
13263;SDS011;6700;51.988;7.646;2024-01-15T13:18:27;6.07;;;2.08;;
13263;SDS011;6700;51.988;7.646;2024-01-15T13:20:54;3.30;;;1.98;;
13263;SDS011;6700;51.988;7.646;2024-01-15T13:23:22;3.25;;;2.10;;
13263;SDS011;6700;51.988;7.646;2024-01-15T13:25:49;5.35;;;2.08;;
13263;SDS011;6700;51.988;7.646;2024-01-15T13:28:17;4.32;;;2.33;;
13263;SDS011;6700;51.988;7.646;2024-01-15T13:30:45;5.53;;;1.92;;
13263;SDS011;6700;51.988;7.646;2024-01-15T13:33:12;6.03;;;2.08;;
13263;SDS011;6700;51.988;7.646;2024-01-15T13:35:39;3.92;;;1.75;;
13263;SDS011;6700;51.988;7.646;2024-01-15T13:38:07;4.43;;;2.00;;
13263;SDS011;6700;51.988;7.646;2024-01-15T13:40:35;5.47;;;2.20;;
13263;SDS011;6700;51.988;7.646;2024-01-15T13:43:02;5.22;;;1.98;;
13263;SDS011;6700;51.988;7.646;2024-01-15T13:45:33;5.03;;;1.70;;
13263;SDS011;6700;51.988;7.646;2024-01-15T13:48:03;4.65;;;1.70;;
13263;SDS011;6700;51.988;7.646;2024-01-15T13:50:35;5.18;;;1.88;;
13263;SDS011;6700;51.988;7.646;2024-01-15T13:53:02;3.65;;;1.55;;
13263;SDS011;6700;51.988;7.646;2024-01-15T13:55:30;2.45;;;1.50;;
13263;SDS011;6700;51.988;7.646;2024-01-15T13:57:57;5.05;;;1.80;;
13263;SDS011;6700;51.988;7.646;2024-01-15T14:00:24;3.20;;;1.80;;
13263;SDS011;6700;51.988;7.646;2024-01-15T14:02:52;2.53;;;1.30;;
13263;SDS011;6700;51.988;7.646;2024-01-15T14:05:19;3.27;;;1.53;;
13263;SDS011;6700;51.988;7.646;2024-01-15T14:07:46;2.70;;;1.50;;
13263;SDS011;6700;51.988;7.646;2024-01-15T14:10:13;7.15;;;1.92;;
13263;SDS011;6700;51.988;7.646;2024-01-15T14:12:41;7.15;;;1.58;;
13263;SDS011;6700;51.988;7.646;2024-01-15T14:15:08;3.35;;;1.67;;
13263;SDS011;6700;51.988;7.646;2024-01-15T14:17:35;2.83;;;1.30;;
13263;SDS011;6700;51.988;7.646;2024-01-15T14:20:03;3.13;;;1.42;;
13263;SDS011;6700;51.988;7.646;2024-01-15T14:22:32;3.05;;;1.52;;
13263;SDS011;6700;51.988;7.646;2024-01-15T14:24:59;3.70;;;1.40;;
13263;SDS011;6700;51.988;7.646;2024-01-15T14:27:26;3.53;;;1.73;;
13263;SDS011;6700;51.988;7.646;2024-01-15T14:29:54;4.28;;;1.73;;
13263;SDS011;6700;51.988;7.646;2024-01-15T14:32:21;2.05;;;1.40;;
13263;SDS011;6700;51.988;7.646;2024-01-15T14:34:51;3.13;;;1.63;;
13263;SDS011;6700;51.988;7.646;2024-01-15T14:37:18;3.15;;;1.75;;
13263;SDS011;6700;51.988;7.646;2024-01-15T14:39:47;2.40;;;1.60;;
13263;SDS011;6700;51.988;7.646;2024-01-15T14:42:14;2.47;;;1.27;;
13263;SDS011;6700;51.988;7.646;2024-01-15T14:44:42;3.13;;;1.47;;
13263;SDS011;6700;51.988;7.646;2024-01-15T14:47:09;3.28;;;1.30;;
13263;SDS011;6700;51.988;7.646;2024-01-15T14:49:36;4.53;;;1.20;;
13263;SDS011;6700;51.988;7.646;2024-01-15T14:52:03;2.72;;;1.40;;
13263;SDS011;6700;51.988;7.646;2024-01-15T14:54:31;3.42;;;1.70;;
13263;SDS011;6700;51.988;7.646;2024-01-15T14:56:58;4.80;;;1.48;;
13263;SDS011;6700;51.988;7.646;2024-01-15T14:59:25;3.03;;;1.50;;
13263;SDS011;6700;51.988;7.646;2024-01-15T15:01:54;5.00;;;1.92;;
13263;SDS011;6700;51.988;7.646;2024-01-15T15:04:23;6.30;;;2.30;;
13263;SDS011;6700;51.988;7.646;2024-01-15T15:06:50;3.92;;;1.80;;
13263;SDS011;6700;51.988;7.646;2024-01-15T15:09:17;4.47;;;1.80;;
13263;SDS011;6700;51.988;7.646;2024-01-15T15:11:45;4.15;;;1.92;;
13263;SDS011;6700;51.988;7.646;2024-01-15T15:14:12;4.25;;;1.52;;
13263;SDS011;6700;51.988;7.646;2024-01-15T15:16:43;3.35;;;1.90;;
13263;SDS011;6700;51.988;7.646;2024-01-15T15:19:14;4.55;;;1.95;;
13263;SDS011;6700;51.988;7.646;2024-01-15T15:21:41;5.45;;;1.73;;
13263;SDS011;6700;51.988;7.646;2024-01-15T15:24:09;3.72;;;2.03;;